Time;durP1;ratioP1;P1;durP2;ratioP2;P2;SDS_P1;SDS_P2;PMS_P1;PMS_P2;Temp;Humidity;BMP_temperature;BMP_pressure;BME280_temperature;BME280_humidity;BME280_pressure;Samples;Min_cycle;Max_cycle;Signal;HPM_P1;HPM_P2
2021/01/08 00:02:22;;;;;;;12.45;9.10;;;;;;;-144.01;100.00;62166.59;5022328;28;20049;-47
2021/01/08 00:04:49;;;;;;;14.68;8.77;;;;;;;-144.01;100.00;62166.59;5030873;28;20060;-46
2021/01/08 00:07:16;;;;;;;11.48;8.88;;;;;;;-144.01;100.00;62166.59;5024498;28;20056;-47
2021/01/08 00:09:43;;;;;;;11.80;8.48;;;;;;;-144.01;100.00;62166.59;5076147;28;20052;-45
2021/01/08 00:12:10;;;;;;;9.43;7.30;;;;;;;-144.01;100.00;62166.59;5076163;28;20044;-46
2021/01/08 00:14:38;;;;;;;9.85;7.70;;;;;;;-144.01;100.00;62166.59;5075962;28;20048;-48
2021/01/08 00:17:05;;;;;;;10.02;7.32;;;;;;;-144.01;100.00;62166.59;5075811;28;20061;-47
2021/01/08 00:19:33;;;;;;;10.20;6.85;;;;;;;-144.01;100.00;62166.59;5075440;28;20367;-45
2021/01/08 00:22:00;;;;;;;9.32;6.80;;;;;;;-144.01;100.00;62166.59;5075779;28;20449;-47
2021/01/08 00:24:28;;;;;;;9.90;6.97;;;;;;;-144.01;100.00;62166.59;5075628;28;20382;-46
2021/01/08 00:26:59;;;;;;;9.50;6.63;;;;;;;-144.01;100.00;62166.59;5075647;28;20367;-45
2021/01/08 00:29:26;;;;;;;9.80;7.05;;;;;;;-144.01;100.00;62166.59;5040055;28;20045;-49
2021/01/08 00:31:53;;;;;;;10.52;8.05;;;;;;;-144.01;100.00;62166.59;5057797;28;20063;-46
2021/01/08 00:34:20;;;;;;;9.07;7.25;;;;;;;-144.01;100.00;62166.59;5068676;28;20773;-48
2021/01/08 00:36:53;;;;;;;7.03;6.10;;;;;;;-144.01;100.00;62166.59;5055630;28;20056;-48
2021/01/08 00:39:20;;;;;;;8.60;7.07;;;;;;;-144.01;100.00;62166.59;5071289;28;20053;-47
2021/01/08 00:41:48;;;;;;;9.52;7.82;;;;;;;-144.01;100.00;62166.59;5075612;28;20519;-47
2021/01/08 00:44:15;;;;;;;7.35;6.55;;;;;;;-144.01;100.00;62166.59;5065883;28;20045;-46
2021/01/08 00:46:48;;;;;;;10.15;7.93;;;;;;;-144.01;100.00;62166.59;5053600;28;20056;-46
2021/01/08 00:49:15;;;;;;;7.63;6.80;;;;;;;-144.01;100.00;62166.59;5067823;28;20363;-45
2021/01/08 00:51:43;;;;;;;8.55;6.45;;;;;;;-144.01;100.00;62166.59;5055096;28;20063;-46
2021/01/08 00:54:10;;;;;;;8.48;6.80;;;;;;;-144.01;100.00;62166.59;5055027;28;20045;-45
2021/01/08 00:56:40;;;;;;;8.80;6.55;;;;;;;-144.01;100.00;62166.59;5053941;28;20052;-50
2021/01/08 00:59:22;;;;;;;8.90;7.03;;;;;;;-144.01;100.00;62166.59;5037385;28;20140;-47
2021/01/08 01:01:50;;;;;;;8.80;6.65;;;;;;;-144.01;100.00;62166.59;5054936;28;20051;-45
2021/01/08 01:04:17;;;;;;;7.82;5.90;;;;;;;-144.01;100.00;62166.59;5055045;28;20467;-49
2021/01/08 01:06:44;;;;;;;8.63;6.50;;;;;;;-144.01;100.00;62166.59;5055065;28;20100;-47
2021/01/08 01:09:11;;;;;;;9.18;6.38;;;;;;;-144.01;100.00;62166.59;5052135;28;20049;-47
2021/01/08 01:11:39;;;;;;;8.93;7.45;;;;;;;-144.01;100.00;62166.59;5054975;28;20052;-49
2021/01/08 01:14:07;;;;;;;10.23;7.00;;;;;;;-144.01;100.00;62166.59;5040734;28;20049;-46
2021/01/08 01:16:35;;;;;;;8.75;6.82;;;;;;;-144.01;100.00;62166.59;5035056;28;20057;-46
2021/01/08 01:19:02;;;;;;;8.93;7.75;;;;;;;-144.01;100.00;62166.59;5046947;28;20060;-50
2021/01/08 01:21:29;;;;;;;8.23;6.65;;;;;;;-144.01;100.00;62166.59;5054707;28;20048;-47
2021/01/08 01:23:56;;;;;;;8.68;6.97;;;;;;;-144.01;100.00;62166.59;5054494;28;20064;-47
2021/01/08 01:26:23;;;;;;;7.68;6.30;;;;;;;-144.01;100.00;62166.59;5054547;28;20082;-46
2021/01/08 01:28:50;;;;;;;6.55;5.32;;;;;;;-144.01;100.00;62166.59;5054322;28;20080;-46
2021/01/08 01:31:18;;;;;;;7.63;5.80;;;;;;;-144.01;100.00;62166.59;5054647;28;20053;-46
2021/01/08 01:33:45;;;;;;;6.60;5.43;;;;;;;-144.01;100.00;62166.59;5053874;28;20049;-46
2021/01/08 01:36:12;;;;;;;7.95;5.47;;;;;;;-144.01;100.00;62166.59;5054661;28;20396;-46
2021/01/08 01:38:39;;;;;;;6.57;5.43;;;;;;;-144.01;100.00;62166.59;5054218;28;20075;-46
2021/01/08 01:41:06;;;;;;;5.90;4.93;;;;;;;-144.01;100.00;62166.59;5054282;28;20049;-47
2021/01/08 01:43:34;;;;;;;6.05;5.45;;;;;;;-144.01;100.00;62166.59;5054207;28;20471;-47
2021/01/08 01:46:02;;;;;;;7.38;5.13;;;;;;;-144.01;100.00;62166.59;5054479;28;20051;-46
2021/01/08 01:48:30;;;;;;;6.28;5.07;;;;;;;-144.01;100.00;62166.59;5053975;28;20056;-45
2021/01/08 01:50:57;;;;;;;5.25;4.40;;;;;;;-144.01;100.00;62166.59;5052976;28;20051;-47
2021/01/08 01:53:24;;;;;;;5.68;4.53;;;;;;;-144.01;100.00;62166.59;5036340;28;20048;-48
2021/01/08 01:55:52;;;;;;;5.25;4.35;;;;;;;-144.01;100.00;62166.59;5054086;28;20263;-48
2021/01/08 01:58:22;;;;;;;5.65;4.43;;;;;;;-144.01;100.00;62166.59;5054028;28;20053;-46
2021/01/08 02:00:49;;;;;;;5.60;4.53;;;;;;;-144.01;100.00;62166.59;5053961;28;20045;-47
2021/01/08 02:03:23;;;;;;;4.43;4.03;;;;;;;-144.01;100.00;62166.59;5043369;28;20068;-46
2021/01/08 02:05:53;;;;;;;4.85;4.35;;;;;;;-144.01;100.00;62166.59;5033389;28;20053;-45
2021/01/08 02:08:25;;;;;;;5.32;4.10;;;;;;;-144.01;100.00;62166.59;5069808;28;20060;-47
2021/01/08 02:10:55;;;;;;;4.82;4.30;;;;;;;-144.01;100.00;62166.59;5074275;28;20067;-45
2021/01/08 02:13:30;;;;;;;4.88;4.22;;;;;;;-144.01;100.00;62166.59;5073631;28;20040;-46
2021/01/08 02:15:58;;;;;;;5.20;4.05;;;;;;;-144.01;100.00;62166.59;5047965;28;20056;-47
2021/01/08 02:18:27;;;;;;;5.10;4.47;;;;;;;-144.01;100.00;62166.59;5057926;28;20439;-45
2021/01/08 02:20:58;;;;;;;5.10;4.10;;;;;;;-144.01;100.00;62166.59;5055978;28;20052;-46
2021/01/08 02:24:07;;;;;;;5.25;4.30;;;;;;;-144.01;100.00;62166.59;5037223;28;20052;-46
2021/01/08 02:26:34;;;;;;;5.13;3.80;;;;;;;-144.01;100.00;62166.59;5034425;28;20403;-47
2021/01/08 02:29:01;;;;;;;4.10;3.70;;;;;;;-144.01;100.00;62166.59;5053588;28;20443;-49
2021/01/08 02:31:28;;;;;;;4.57;3.67;;;;;;;-144.01;100.00;62166.59;5052793;28;20056;-45
2021/01/08 02:33:56;;;;;;;4.65;3.70;;;;;;;-144.01;100.00;62166.59;5059394;28;20055;-49
2021/01/08 02:36:24;;;;;;;5.03;3.70;;;;;;;-144.01;100.00;62166.59;5052653;28;20044;-46
2021/01/08 02:38:51;;;;;;;4.68;3.65;;;;;;;-144.01;100.00;62166.59;5060796;28;20435;-47
2021/01/08 02:41:19;;;;;;;4.28;3.50;;;;;;;-144.01;100.00;62166.59;5055679;28;20064;-46
2021/01/08 02:43:47;;;;;;;4.82;4.20;;;;;;;-144.01;100.00;62166.59;5055465;28;20051;-45
2021/01/08 02:46:14;;;;;;;4.43;4.00;;;;;;;-144.01;100.00;62166.59;5037841;28;20419;-46
2021/01/08 02:48:41;;;;;;;4.43;4.03;;;;;;;-144.01;100.00;62166.59;5053291;28;20045;-47
2021/01/08 02:51:09;;;;;;;4.30;3.72;;;;;;;-144.01;100.00;62166.59;5053835;28;20057;-46
2021/01/08 02:53:38;;;;;;;5.40;4.22;;;;;;;-144.01;100.00;62166.59;5057590;28;20375;-46
2021/01/08 02:56:19;;;;;;;7.70;5.30;;;;;;;-144.01;100.00;62166.59;5057156;28;20049;-46
2021/01/08 02:58:46;;;;;;;5.22;4.65;;;;;;;-144.01;100.00;62166.59;5057512;28;20049;-47
2021/01/08 03:01:14;;;;;;;7.78;5.07;;;;;;;-144.01;100.00;62166.59;5056361;28;20056;-46
2021/01/08 03:03:41;;;;;;;5.53;4.85;;;;;;;-144.01;100.00;62166.59;5056037;28;20051;-49
2021/01/08 03:06:08;;;;;;;5.70;4.80;;;;;;;-144.01;100.00;62166.59;5051680;28;20052;-46
2021/01/08 03:08:36;;;;;;;6.95;5.22;;;;;;;-144.01;100.00;62166.59;5041644;28;20796;-48
2021/01/08 03:11:08;;;;;;;6.05;4.80;;;;;;;-144.01;100.00;62166.59;5076899;28;20067;-48
2021/01/08 03:13:38;;;;;;;5.47;4.80;;;;;;;-144.01;100.00;62166.59;5059596;28;20055;-47
2021/01/08 03:16:06;;;;;;;5.75;4.80;;;;;;;-144.01;100.00;62166.59;5059585;28;20055;-46
2021/01/08 03:18:33;;;;;;;6.88;5.43;;;;;;;-144.01;100.00;62166.59;5076972;28;20052;-46
2021/01/08 03:21:00;;;;;;;6.40;5.43;;;;;;;-144.01;100.00;62166.59;5077187;28;20060;-46
2021/01/08 03:23:27;;;;;;;6.32;5.72;;;;;;;-144.01;100.00;62166.59;5077191;28;20044;-46
2021/01/08 03:25:54;;;;;;;7.07;5.50;;;;;;;-144.01;100.00;62166.59;5076887;28;20467;-47
2021/01/08 03:28:22;;;;;;;6.45;5.72;;;;;;;-144.01;100.00;62166.59;5076974;28;20059;-48
2021/01/08 03:30:49;;;;;;;7.15;6.40;;;;;;;-144.01;100.00;62166.59;5076511;28;20059;-51
2021/01/08 03:33:16;;;;;;;6.80;5.70;;;;;;;-144.01;100.00;62166.59;5076383;28;20056;-46
2021/01/08 03:35:43;;;;;;;6.50;5.57;;;;;;;-144.01;100.00;62166.59;5076889;28;20470;-48
2021/01/08 03:38:11;;;;;;;6.53;5.82;;;;;;;-144.01;100.00;62166.59;5076491;28;20134;-47
2021/01/08 03:40:40;;;;;;;7.13;6.05;;;;;;;-144.01;100.00;62166.59;5076381;28;20052;-46
2021/01/08 03:43:11;;;;;;;7.25;5.82;;;;;;;-144.01;100.00;62166.59;5076561;28;20047;-48
2021/01/08 03:45:39;;;;;;;6.70;6.00;;;;;;;-144.01;100.00;62166.59;5076680;28;20049;-47
2021/01/08 03:48:06;;;;;;;8.52;6.15;;;;;;;-144.01;100.00;62166.59;5058599;28;20078;-46
2021/01/08 03:50:33;;;;;;;7.07;5.82;;;;;;;-144.01;100.00;62166.59;5076143;28;20059;-48
2021/01/08 03:53:00;;;;;;;6.85;6.15;;;;;;;-144.01;100.00;62166.59;5076199;28;20045;-46
2021/01/08 03:55:28;;;;;;;6.82;6.00;;;;;;;-144.01;100.00;62166.59;5076564;28;20044;-46
2021/01/08 03:57:55;;;;;;;7.18;6.30;;;;;;;-144.01;100.00;62166.59;5075214;28;20056;-48
2021/01/08 04:00:22;;;;;;;6.95;6.13;;;;;;;-144.01;100.00;62166.59;5076432;28;20478;-48
2021/01/08 04:02:50;;;;;;;7.18;6.35;;;;;;;-144.01;100.00;62166.59;5074699;28;20048;-47
2021/01/08 04:05:17;;;;;;;6.70;6.00;;;;;;;-144.01;100.00;62166.59;5076172;28;20048;-47
2021/01/08 04:07:44;;;;;;;9.50;6.78;;;;;;;-144.01;100.00;62166.59;5075833;28;20745;-47
2021/01/08 04:10:11;;;;;;;8.98;6.38;;;;;;;-144.01;100.00;62166.59;5076105;28;20060;-47
2021/01/08 04:12:38;;;;;;;6.50;5.72;;;;;;;-144.01;100.00;62166.59;5076123;28;20371;-48
2021/01/08 04:15:06;;;;;;;6.85;6.18;;;;;;;-144.01;100.00;62166.59;5076167;28;20048;-47
2021/01/08 04:17:33;;;;;;;7.68;6.45;;;;;;;-144.01;100.00;62166.59;5076040;28;20049;-47
2021/01/08 04:20:00;;;;;;;7.53;6.72;;;;;;;-144.01;100.00;62166.59;5075926;28;20045;-48
2021/01/08 04:22:27;;;;;;;7.50;6.70;;;;;;;-144.01;100.00;62166.59;5067142;22;20060;-45
2021/01/08 04:24:55;;;;;;;8.38;7.38;;;;;;;-144.01;100.00;62166.59;5055581;28;20048;-47
2021/01/08 04:27:22;;;;;;;9.20;8.20;;;;;;;-144.01;100.00;62166.59;5055937;28;20059;-49
2021/01/08 04:29:49;;;;;;;8.70;7.80;;;;;;;-144.01;100.00;62166.59;5055625;28;20375;-46
2021/01/08 04:32:16;;;;;;;8.05;7.25;;;;;;;-144.01;100.00;62166.59;5055020;28;20048;-48
2021/01/08 04:34:43;;;;;;;9.02;8.02;;;;;;;-144.01;100.00;62166.59;5055301;28;20055;-47
2021/01/08 04:37:10;;;;;;;11.55;9.35;;;;;;;-144.01;100.00;62166.59;5055543;28;20045;-47
2021/01/08 04:39:37;;;;;;;10.35;9.25;;;;;;;-144.01;100.00;62166.59;5055700;28;20059;-45
2021/01/08 04:42:05;;;;;;;11.90;10.38;;;;;;;-144.01;100.00;62166.59;5055541;28;20055;-47
2021/01/08 04:44:32;;;;;;;12.68;11.38;;;;;;;-144.01;100.00;62166.59;5055589;28;20056;-47
2021/01/08 04:46:59;;;;;;;11.75;10.50;;;;;;;-144.01;100.00;62166.59;5068474;28;20048;-47
2021/01/08 04:49:27;;;;;;;14.13;11.52;;;;;;;-144.01;100.00;62166.59;5035531;28;20392;-46
2021/01/08 04:51:54;;;;;;;14.70;12.45;;;;;;;-144.01;100.00;62166.59;5023855;28;20056;-46
2021/01/08 04:54:21;;;;;;;13.15;11.75;;;;;;;-144.01;100.00;62166.59;5055160;28;20045;-46
2021/01/08 04:56:53;;;;;;;13.63;12.15;;;;;;;-144.01;100.00;62166.59;5054401;28;20053;-45
2021/01/08 04:59:22;;;;;;;14.10;12.48;;;;;;;-144.01;100.00;62166.59;5055302;28;20041;-47
2021/01/08 05:01:50;;;;;;;13.88;12.40;;;;;;;-144.01;100.00;62166.59;5070707;28;20056;-47
2021/01/08 05:04:17;;;;;;;13.73;11.98;;;;;;;-144.01;100.00;62166.59;5049853;28;20450;-49
2021/01/08 05:06:44;;;;;;;16.00;13.80;;;;;;;-144.01;100.00;62166.59;5049069;28;20738;-48
2021/01/08 05:09:12;;;;;;;19.48;15.90;;;;;;;-144.01;100.00;62166.59;5049783;28;20365;-46
2021/01/08 05:11:39;;;;;;;18.13;16.13;;;;;;;-144.01;100.00;62166.59;5035274;28;20050;-49
2021/01/08 05:14:08;;;;;;;27.42;22.23;;;;;;;-144.01;100.00;62166.59;5045429;28;20053;-46
2021/01/08 05:16:38;;;;;;;29.05;23.30;;;;;;;-144.01;100.00;62166.59;5059561;28;20127;-49
2021/01/08 05:19:06;;;;;;;29.15;23.70;;;;;;;-144.01;100.00;62166.59;5074973;28;20044;-46
2021/01/08 05:21:34;;;;;;;30.05;23.90;;;;;;;-144.01;100.00;62166.59;5066626;28;20061;-46
2021/01/08 05:24:03;;;;;;;32.03;23.95;;;;;;;-144.01;100.00;62166.59;5045097;28;20075;-47
2021/01/08 05:26:30;;;;;;;32.00;24.15;;;;;;;-144.01;100.00;62166.59;5051892;28;20049;-45
2021/01/08 05:29:00;;;;;;;28.75;22.98;;;;;;;-144.01;100.00;62166.59;5034728;28;20053;-45
2021/01/08 05:31:29;;;;;;;27.15;21.30;;;;;;;-144.01;100.00;62166.59;5017229;28;20072;-44
2021/01/08 05:33:56;;;;;;;21.33;17.10;;;;;;;-144.01;100.00;62166.59;5043485;28;20045;-47
2021/01/08 05:36:25;;;;;;;19.65;17.30;;;;;;;-144.01;100.00;62166.59;5050250;28;20065;-47
2021/01/08 05:39:02;;;;;;;22.70;17.98;;;;;;;-144.01;100.00;62166.59;5036854;28;20057;-48
2021/01/08 05:41:31;;;;;;;23.33;18.80;;;;;;;-144.01;100.00;62166.59;5034546;28;20064;-49
2021/01/08 05:44:00;;;;;;;23.52;19.52;;;;;;;-144.01;100.00;62166.59;5043366;28;20053;-50
2021/01/08 05:46:37;;;;;;;26.02;19.70;;;;;;;-144.01;100.00;62166.59;5054545;28;20061;-48
2021/01/08 05:49:06;;;;;;;24.45;19.80;;;;;;;-144.01;100.00;62166.59;5054488;28;20052;-49
2021/01/08 05:51:36;;;;;;;23.27;19.52;;;;;;;-144.01;100.00;62166.59;5069079;28;20053;-50
2021/01/08 05:54:04;;;;;;;23.75;19.92;;;;;;;-144.01;100.00;62166.59;5054224;28;20055;-47
2021/01/08 05:56:36;;;;;;;24.45;20.40;;;;;;;-144.01;100.00;62166.59;5054389;28;20060;-49
2021/01/08 05:59:04;;;;;;;24.67;19.67;;;;;;;-144.01;100.00;62166.59;5054262;28;20052;-48
2021/01/08 06:01:32;;;;;;;26.20;20.48;;;;;;;-144.01;100.00;62166.59;5037264;28;20064;-49
2021/01/08 06:04:03;;;;;;;24.00;20.65;;;;;;;-144.01;100.00;62166.59;5042655;28;20045;-49
2021/01/08 06:06:43;;;;;;;24.73;20.88;;;;;;;-144.01;100.00;62166.59;5054207;28;20088;-49
2021/01/08 06:09:15;;;;;;;25.05;21.27;;;;;;;-144.01;100.00;62166.59;5054073;28;20057;-49
2021/01/08 06:11:45;;;;;;;26.48;21.85;;;;;;;-144.01;100.00;62166.59;5053925;28;20056;-51
2021/01/08 06:14:17;;;;;;;26.52;21.58;;;;;;;-144.01;100.00;62166.59;5053715;28;20086;-50
2021/01/08 06:16:46;;;;;;;29.40;24.23;;;;;;;-144.01;100.00;62166.59;5054082;28;20053;-48
2021/01/08 06:19:14;;;;;;;29.17;24.55;;;;;;;-144.01;100.00;62166.59;5053938;28;20053;-47
2021/01/08 06:21:45;;;;;;;30.17;23.30;;;;;;;-144.01;100.00;62166.59;5053349;28;20084;-51
2021/01/08 06:24:22;;;;;;;27.88;24.10;;;;;;;-144.01;100.00;62166.59;5053770;28;20057;-51
2021/01/08 06:26:50;;;;;;;29.08;23.70;;;;;;;-144.01;100.00;62166.59;5053133;28;20048;-49
2021/01/08 06:29:18;;;;;;;28.63;23.92;;;;;;;-144.01;100.00;62166.59;5053671;28;20061;-49
2021/01/08 06:31:54;;;;;;;29.00;24.65;;;;;;;-144.01;100.00;62166.59;5053700;28;20064;-49
2021/01/08 06:34:29;;;;;;;29.38;24.85;;;;;;;-144.01;100.00;62166.59;5069087;28;20068;-47
2021/01/08 06:37:02;;;;;;;30.83;26.45;;;;;;;-144.01;100.00;62166.59;5053739;28;20049;-49
2021/01/08 06:39:32;;;;;;;;;;;;;;;-144.01;100.00;62166.59;5054286;28;20052;-48
2021/01/08 06:42:01;;;;;;;33.03;26.75;;;;;;;-144.01;100.00;62166.59;5053534;28;19943;-53
2021/01/08 06:44:30;;;;;;;33.22;26.58;;;;;;;-144.01;100.00;62166.59;5052609;28;20087;-47
2021/01/08 06:46:59;;;;;;;22.45;19.90;;;;;;;-144.01;100.00;62166.59;5053518;28;20049;-49
2021/01/08 06:49:31;;;;;;;25.60;22.15;;;;;;;-144.01;100.00;62166.59;5069283;28;20057;-49
2021/01/08 06:52:01;;;;;;;22.92;20.50;;;;;;;-144.01;100.00;62166.59;5052870;28;20072;-48
2021/01/08 06:54:29;;;;;;;21.70;19.35;;;;;;;-144.01;100.00;62166.59;5047101;28;20367;-48
2021/01/08 06:57:00;;;;;;;34.25;22.58;;;;;;;-144.01;100.00;62166.59;5033677;28;20057;-48
2021/01/08 06:59:34;;;;;;;24.42;21.38;;;;;;;-144.01;100.00;62166.59;5033559;28;20045;-49
2021/01/08 07:02:01;;;;;;;23.02;20.25;;;;;;;-144.01;100.00;62166.59;5033550;28;20053;-47
2021/01/08 07:04:31;;;;;;;23.27;19.45;;;;;;;-144.01;100.00;62166.59;5043965;28;20052;-49
2021/01/08 07:07:02;;;;;;;23.73;20.10;;;;;;;-144.01;100.00;62166.59;5069184;28;20060;-50
2021/01/08 07:09:37;;;;;;;22.45;19.75;;;;;;;-144.01;100.00;62166.59;5053337;28;20049;-53
2021/01/08 07:12:06;;;;;;;22.23;19.17;;;;;;;-144.01;100.00;62166.59;5053321;28;20053;-51
2021/01/08 07:14:38;;;;;;;20.08;17.98;;;;;;;-144.01;100.00;62166.59;5053339;28;20053;-48
2021/01/08 07:17:06;;;;;;;21.48;19.15;;;;;;;-144.01;100.00;62166.59;5053293;28;20049;-50
2021/01/08 07:19:34;;;;;;;23.55;20.02;;;;;;;-144.01;100.00;62166.59;5053324;28;20448;-47
2021/01/08 07:22:03;;;;;;;23.65;21.08;;;;;;;-144.01;100.00;62166.59;5063360;28;20069;-52
2021/01/08 07:24:34;;;;;;;26.58;22.00;;;;;;;-144.01;100.00;62166.59;5053057;28;20049;-49
2021/01/08 07:27:18;;;;;;;24.35;21.67;;;;;;;-144.01;100.00;62166.59;5052806;28;20372;-51
2021/01/08 07:29:57;;;;;;;;;;;;;;;-144.01;100.00;62166.59;5053640;28;20059;-49
2021/01/08 07:32:36;;;;;;;24.60;21.90;;;;;;;-144.01;100.00;62166.59;5053105;28;19913;-48
2021/01/08 07:35:18;;;;;;;26.10;23.10;;;;;;;-144.01;100.00;62166.59;5052909;28;20487;-48
2021/01/08 07:38:06;;;;;;;27.55;23.05;;;;;;;-144.01;100.00;62166.59;5052252;28;20064;-48
2021/01/08 07:40:35;;;;;;;29.00;23.95;;;;;;;-144.01;100.00;62166.59;5036959;28;20052;-49
2021/01/08 07:43:06;;;;;;;27.13;23.23;;;;;;;-144.01;100.00;62166.59;5036825;28;20057;-48
2021/01/08 07:45:51;;;;;;;28.70;24.65;;;;;;;-144.01;100.00;62166.59;5055329;28;20049;-49
2021/01/08 07:48:19;;;;;;;24.75;21.90;;;;;;;-144.01;100.00;62166.59;5054350;28;20060;-47
2021/01/08 07:51:09;;;;;;;27.17;24.20;;;;;;;-144.01;100.00;62166.59;5036349;28;20049;-47
2021/01/08 07:53:42;;;;;;;29.40;25.42;;;;;;;-144.01;100.00;62166.59;5037778;28;20057;-49
2021/01/08 07:56:10;;;;;;;;;;;;;;;-144.01;100.00;62166.59;5045089;28;20057;-52
2021/01/08 07:58:37;;;;;;;31.67;26.55;;;;;;;-144.01;100.00;62166.59;5036642;28;19985;-48
2021/01/08 08:01:06;;;;;;;34.03;27.60;;;;;;;-144.01;100.00;62166.59;5036638;28;20049;-49
2021/01/08 08:03:33;;;;;;;31.35;26.33;;;;;;;-144.01;100.00;62166.59;5037408;28;20092;-47
2021/01/08 08:06:01;;;;;;;30.92;26.30;;;;;;;-144.01;100.00;62166.59;5056431;28;20049;-49
2021/01/08 08:08:28;;;;;;;29.85;26.50;;;;;;;-144.01;100.00;62166.59;5037753;28;20060;-50
2021/01/08 08:11:26;;;;;;;30.65;24.70;;;;;;;-144.01;100.00;62166.59;5035879;28;20522;-53
2021/01/08 08:13:54;;;;;;;34.08;27.98;;;;;;;-144.01;100.00;62166.59;5039558;28;20060;-50
2021/01/08 08:16:37;;;;;;;34.65;28.52;;;;;;;-144.01;100.00;62166.59;5056257;28;20060;-48
2021/01/08 08:19:06;;;;;;;41.50;33.88;;;;;;;-144.01;100.00;62166.59;5056086;28;20049;-49
2021/01/08 08:21:34;;;;;;;46.35;38.53;;;;;;;-144.01;100.00;62166.59;5055486;28;20044;-50
2021/01/08 08:24:03;;;;;;;38.17;31.83;;;;;;;-144.01;100.00;62166.59;5055940;28;20040;-50
2021/01/08 08:26:32;;;;;;;31.77;27.05;;;;;;;-144.01;100.00;62166.59;5055906;28;20055;-48
2021/01/08 08:29:04;;;;;;;27.88;23.80;;;;;;;-144.01;100.00;62166.59;5038452;28;20064;-51
2021/01/08 08:31:40;;;;;;;26.90;23.10;;;;;;;-144.01;100.00;62166.59;5055736;28;20443;-49
2021/01/08 08:34:09;;;;;;;26.63;21.73;;;;;;;-144.01;100.00;62166.59;5054787;28;20055;-50
2021/01/08 08:36:37;;;;;;;23.05;18.90;;;;;;;-144.01;100.00;62166.59;5056016;28;20048;-48
2021/01/08 08:39:14;;;;;;;21.52;17.73;;;;;;;-144.01;100.00;62166.59;5055711;28;20379;-47
2021/01/08 08:41:50;;;;;;;19.25;16.80;;;;;;;-144.01;100.00;62166.59;5055641;28;20427;-50
2021/01/08 08:44:18;;;;;;;18.85;15.82;;;;;;;-144.01;100.00;62166.59;5055623;28;20446;-49
2021/01/08 08:46:56;;;;;;;19.90;16.23;;;;;;;-144.01;100.00;62166.59;5055788;28;20045;-49
2021/01/08 08:49:33;;;;;;;21.65;16.50;;;;;;;-144.01;100.00;62166.59;5054132;28;20057;-48
2021/01/08 08:52:01;;;;;;;22.75;16.98;;;;;;;-144.01;100.00;62166.59;5055012;28;20068;-50
2021/01/08 08:54:28;;;;;;;22.65;16.67;;;;;;;-144.01;100.00;62166.59;5055298;28;20049;-48
2021/01/08 08:57:02;;;;;;;22.33;17.38;;;;;;;-144.01;100.00;62166.59;5037993;28;20048;-53
2021/01/08 08:59:39;;;;;;;21.02;17.10;;;;;;;-144.01;100.00;62166.59;5055776;28;20486;-53
2021/01/08 09:02:07;;;;;;;23.40;18.58;;;;;;;-144.01;100.00;62166.59;5055579;28;20045;-52
2021/01/08 09:04:35;;;;;;;25.67;19.42;;;;;;;-144.01;100.00;62166.59;5055360;28;20040;-49
2021/01/08 09:07:07;;;;;;;23.55;19.25;;;;;;;-144.01;100.00;62166.59;5055024;28;20053;-50
2021/01/08 09:09:38;;;;;;;25.80;19.60;;;;;;;-144.01;100.00;62166.59;5070994;28;20053;-50
2021/01/08 09:12:33;;;;;;;25.73;19.55;;;;;;;-144.01;100.00;62166.59;5055018;28;20048;-51
2021/01/08 09:15:06;;;;;;;22.10;18.45;;;;;;;-144.01;100.00;62166.59;5054834;28;20472;-49
2021/01/08 09:17:39;;;;;;;24.27;17.88;;;;;;;-144.01;100.00;62166.59;5054927;28;20068;-48
2021/01/08 09:20:07;;;;;;;22.75;17.95;;;;;;;-144.01;100.00;62166.59;5070712;28;20379;-49
2021/01/08 09:22:35;;;;;;;21.27;17.58;;;;;;;-144.01;100.00;62166.59;5061000;28;20072;-48
2021/01/08 09:25:04;;;;;;;25.75;18.48;;;;;;;-144.01;100.00;62166.59;5037019;28;20467;-51
2021/01/08 09:27:31;;;;;;;22.90;18.42;;;;;;;-144.01;100.00;62166.59;5053825;28;20444;-48
2021/01/08 09:30:11;;;;;;;22.20;17.65;;;;;;;-144.01;100.00;62166.59;5054935;28;20367;-50
2021/01/08 09:32:39;;;;;;;18.40;16.25;;;;;;;-144.01;100.00;62166.59;5054742;28;20431;-48
2021/01/08 09:35:08;;;;;;;21.45;16.13;;;;;;;-144.01;100.00;62166.59;5054636;28;20052;-47
2021/01/08 09:37:39;;;;;;;21.00;16.73;;;;;;;-144.01;100.00;62166.59;5054662;28;20474;-47
2021/01/08 09:40:11;;;;;;;20.75;17.58;;;;;;;-144.01;100.00;62166.59;5054719;28;20055;-49
2021/01/08 09:42:39;;;;;;;23.67;16.30;;;;;;;-144.01;100.00;62166.59;5054596;28;20048;-49
2021/01/08 09:45:22;;;;;;;21.35;18.08;;;;;;;-144.01;100.00;62166.59;5054142;28;20055;-50
2021/01/08 09:47:50;;;;;;;22.67;18.40;;;;;;;-144.01;100.00;62166.59;5054622;28;20452;-50
2021/01/08 09:50:27;;;;;;;24.25;20.60;;;;;;;-144.01;100.00;62166.59;5054757;28;20053;-47
2021/01/08 09:52:58;;;;;;;26.83;21.48;;;;;;;-144.01;100.00;62166.59;5053757;28;20056;-50
2021/01/08 09:55:32;;;;;;;29.33;23.38;;;;;;;-144.01;100.00;62166.59;5054030;28;20044;-52
2021/01/08 09:58:03;;;;;;;29.50;23.55;;;;;;;-144.01;100.00;62166.59;5054303;28;20056;-50
2021/01/08 10:00:37;;;;;;;29.80;23.58;;;;;;;-144.01;100.00;62166.59;5054369;28;20052;-48
2021/01/08 10:03:05;;;;;;;31.45;25.75;;;;;;;-144.01;100.00;62166.59;5054115;28;20376;-49
2021/01/08 10:05:34;;;;;;;30.40;25.63;;;;;;;-144.01;100.00;62166.59;5040369;28;20048;-50
2021/01/08 10:08:03;;;;;;;37.05;28.65;;;;;;;-144.01;100.00;62166.59;5034268;28;20068;-49
2021/01/08 10:10:30;;;;;;;36.85;28.70;;;;;;;-144.01;100.00;62166.59;5034258;28;20049;-49
2021/01/08 10:12:58;;;;;;;34.17;28.42;;;;;;;-144.01;100.00;62166.59;5034224;28;20060;-50
2021/01/08 10:15:49;;;;;;;35.03;29.30;;;;;;;-144.01;100.00;62166.59;5046320;28;20041;-49
2021/01/08 10:18:28;;;;;;;31.90;28.40;;;;;;;-144.01;100.00;62166.59;5054052;28;20056;-50
2021/01/08 10:21:06;;;;;;;28.65;23.48;;;;;;;-144.01;100.00;62166.59;5053755;28;20044;-50
2021/01/08 10:23:41;;;;;;;27.73;22.23;;;;;;;-144.01;100.00;62166.59;5033929;28;20096;-48
2021/01/08 10:26:16;;;;;;;21.17;18.17;;;;;;;-144.01;100.00;62166.59;5047326;28;20458;-48
2021/01/08 10:28:47;;;;;;;18.90;15.88;;;;;;;-144.01;100.00;62166.59;5033894;28;20061;-51
2021/01/08 10:31:16;;;;;;;17.08;14.25;;;;;;;-144.01;100.00;62166.59;5033658;28;20061;-50
2021/01/08 10:33:43;;;;;;;14.80;12.50;;;;;;;-144.01;100.00;62166.59;5016479;28;20345;-51
2021/01/08 10:36:11;;;;;;;15.90;12.05;;;;;;;-144.01;100.00;62166.59;5051755;28;20557;-49
2021/01/08 10:38:38;;;;;;;13.02;11.18;;;;;;;-144.01;100.00;62166.59;5053810;28;20060;-47
2021/01/08 10:41:05;;;;;;;13.15;10.60;;;;;;;-144.01;100.00;62166.59;5053741;28;20073;-49
2021/01/08 10:43:34;;;;;;;14.60;10.65;;;;;;;-144.01;100.00;62166.59;5053680;28;20450;-49
2021/01/08 10:46:04;;;;;;;13.25;10.68;;;;;;;-144.01;100.00;62166.59;5053458;28;20466;-49
2021/01/08 10:48:32;;;;;;;14.40;12.10;;;;;;;-144.01;100.00;62166.59;5053506;28;20442;-49
2021/01/08 10:50:59;;;;;;;15.18;11.43;;;;;;;-144.01;100.00;62166.59;5053474;28;20056;-49
2021/01/08 10:53:26;;;;;;;14.25;11.30;;;;;;;-144.01;100.00;62166.59;5053156;28;20329;-47
2021/01/08 10:55:53;;;;;;;11.45;9.93;;;;;;;-144.01;100.00;62166.59;5045753;28;20041;-50
2021/01/08 10:58:20;;;;;;;13.90;9.77;;;;;;;-144.01;100.00;62166.59;5032579;28;20057;-48
2021/01/08 11:00:48;;;;;;;11.45;9.45;;;;;;;-144.01;100.00;62166.59;5033586;28;20045;-47
2021/01/08 11:03:15;;;;;;;40.53;30.83;;;;;;;-144.01;100.00;62166.59;5033391;28;20060;-47
2021/01/08 11:05:42;;;;;;;91.68;58.45;;;;;;;-144.01;100.00;62166.59;5046424;28;20060;-49
2021/01/08 11:08:10;;;;;;;36.58;28.08;;;;;;;-144.01;100.00;62166.59;5053459;28;20384;-51
2021/01/08 11:10:38;;;;;;;27.15;22.65;;;;;;;-144.01;100.00;62166.59;5053300;28;20057;-49
2021/01/08 11:13:06;;;;;;;25.45;21.17;;;;;;;-144.01;100.00;62166.59;5036756;28;20057;-49
2021/01/08 11:15:33;;;;;;;22.27;19.30;;;;;;;-144.01;100.00;62166.59;5049050;28;20052;-51